createdAt,value
2022-08-03T00:02:19.575Z,21.77
2022-08-03T00:04:48.935Z,21.95
2022-08-03T00:07:18.492Z,21.72
2022-08-03T00:09:46.462Z,21.63
2022-08-03T00:12:14.813Z,21.55
2022-08-03T00:14:43.705Z,21.54
2022-08-03T00:17:12.031Z,21.73
2022-08-03T00:19:39.973Z,21.86
2022-08-03T00:22:09.396Z,21.94
2022-08-03T00:24:37.307Z,22.00
2022-08-03T00:27:05.520Z,21.90
2022-08-03T00:29:33.413Z,22.10
2022-08-03T00:32:21.477Z,21.57
2022-08-03T00:34:57.938Z,21.33
2022-08-03T00:37:41.466Z,21.29
2022-08-03T00:40:12.738Z,20.93
2022-08-03T00:42:53.574Z,20.85
2022-08-03T00:45:23.489Z,21.08
2022-08-03T00:47:52.029Z,21.27
2022-08-03T00:50:23.161Z,21.38
2022-08-03T00:52:54.685Z,21.45
2022-08-03T00:55:23.472Z,21.37
2022-08-03T00:57:52.134Z,21.42
2022-08-03T01:00:23.413Z,21.35
2022-08-03T01:02:52.500Z,21.26
2022-08-03T01:05:21.499Z,21.20
2022-08-03T01:08:09.269Z,21.15
2022-08-03T01:10:47.254Z,21.12
2022-08-03T01:14:03.589Z,21.07
2022-08-03T01:16:19.228Z,21.09
2022-08-03T01:18:53.609Z,21.13
2022-08-03T01:21:27.721Z,21.12
2022-08-03T01:24:06.452Z,21.02
2022-08-03T01:27:00.770Z,21.03
2022-08-03T01:29:53.097Z,21.03
2022-08-03T01:32:53.531Z,21.00
2022-08-03T01:35:17.585Z,21.01
2022-08-03T01:37:53.037Z,21.02
2022-08-03T01:40:23.354Z,20.98
2022-08-03T01:42:53.610Z,20.89
2022-08-03T01:45:27.693Z,20.67
2022-08-03T01:47:57.130Z,20.53
2022-08-03T01:50:28.421Z,20.42
2022-08-03T01:52:58.182Z,20.05
2022-08-03T01:55:28.558Z,19.90
2022-08-03T01:58:05.428Z,20.18
2022-08-03T02:00:37.923Z,20.11
2022-08-03T02:03:08.164Z,20.31
2022-08-03T02:05:36.967Z,20.39
2022-08-03T02:08:07.267Z,20.48
2022-08-03T02:10:37.394Z,20.39
2022-08-03T02:13:08.290Z,20.31
2022-08-03T02:15:39.335Z,20.25
2022-08-03T02:18:09.758Z,20.28
2022-08-03T02:20:39.567Z,20.29
2022-08-03T02:23:08.480Z,20.33
2022-08-03T02:25:42.937Z,20.23
2022-08-03T02:28:13.436Z,19.79
2022-08-03T02:30:46.591Z,19.76
2022-08-03T02:33:26.447Z,20.06
2022-08-03T02:35:56.576Z,20.14
2022-08-03T02:38:29.742Z,19.86
2022-08-03T02:40:59.893Z,19.58
2022-08-03T02:43:39.163Z,19.67
2022-08-03T02:46:23.869Z,20.01
2022-08-03T02:48:55.053Z,20.10
2022-08-03T02:51:24.907Z,19.98
2022-08-03T02:53:54.281Z,20.06
2022-08-03T02:56:25.898Z,19.96
2022-08-03T02:58:54.830Z,19.88
2022-08-03T03:01:27.226Z,19.80
2022-08-03T03:03:57.373Z,19.84
2022-08-03T03:06:29.298Z,19.68
2022-08-03T03:09:00.012Z,19.70
2022-08-03T03:11:28.350Z,19.56
2022-08-03T03:13:58.757Z,19.49
2022-08-03T03:16:30.920Z,19.48
2022-08-03T03:19:00.791Z,19.23
2022-08-03T03:21:30.705Z,19.19
2022-08-03T03:23:59.881Z,19.08
2022-08-03T03:26:28.798Z,19.02
2022-08-03T03:28:57.196Z,18.94
2022-08-03T03:31:25.514Z,18.88
2022-08-03T03:33:55.469Z,18.84
2022-08-03T03:36:23.598Z,18.75
2022-08-03T03:38:51.892Z,18.73
2022-08-03T03:41:21.984Z,18.67
2022-08-03T03:43:51.099Z,18.67
2022-08-03T03:46:19.563Z,18.72
2022-08-03T03:48:47.984Z,18.78
2022-08-03T03:51:17.781Z,18.88
2022-08-03T03:53:57.076Z,19.12
2022-08-03T03:56:26.055Z,19.39
2022-08-03T03:58:54.362Z,19.42
2022-08-03T04:01:23.170Z,19.40
2022-08-03T04:03:51.411Z,19.36
2022-08-03T04:06:38.652Z,19.24
2022-08-03T04:09:27.229Z,19.20
2022-08-03T04:12:02.932Z,19.35
2022-08-03T04:14:34.963Z,19.50
2022-08-03T04:17:05.960Z,19.51
2022-08-03T04:19:39.484Z,19.55
2022-08-03T04:22:12.519Z,19.54
2022-08-03T04:24:44.263Z,19.58
2022-08-03T04:27:15.034Z,19.61
2022-08-03T04:29:48.527Z,19.54
2022-08-03T04:32:18.128Z,19.48
2022-08-03T04:34:46.553Z,19.58
2022-08-03T04:37:25.787Z,19.46
2022-08-03T04:39:57.581Z,19.24
2022-08-03T04:42:26.871Z,19.28
2022-08-03T04:45:01.133Z,19.45
2022-08-03T04:47:33.342Z,19.45
2022-08-03T04:50:03.488Z,19.48
2022-08-03T04:52:33.152Z,19.61
2022-08-03T04:55:01.056Z,19.83
2022-08-03T04:57:29.478Z,19.93
2022-08-03T05:00:02.725Z,20.02
2022-08-03T05:02:32.434Z,20.10
2022-08-03T05:05:00.997Z,20.21
2022-08-03T05:07:34.117Z,20.29
2022-08-03T05:10:15.105Z,20.36
2022-08-03T05:12:46.421Z,20.45
2022-08-03T05:15:14.455Z,20.46
2022-08-03T05:17:42.859Z,20.50
2022-08-03T05:20:12.645Z,20.55
2022-08-03T05:22:40.574Z,20.59
2022-08-03T05:25:17.376Z,20.60
2022-08-03T05:27:48.806Z,20.63
2022-08-03T05:30:30.467Z,20.69
2022-08-03T05:33:01.678Z,20.77
2022-08-03T05:35:57.579Z,20.92
2022-08-03T05:38:28.291Z,20.90
2022-08-03T05:41:20.173Z,21.02
2022-08-03T05:43:47.751Z,21.49
2022-08-03T05:46:15.846Z,21.54
2022-08-03T05:48:44.849Z,21.45
2022-08-03T05:51:13.496Z,21.43
2022-08-03T05:53:41.935Z,21.67
2022-08-03T05:56:14.018Z,21.54
2022-08-03T05:58:45.015Z,21.52
2022-08-03T06:01:13.018Z,21.62
2022-08-03T06:03:44.312Z,21.64
2022-08-03T06:06:12.504Z,21.66
2022-08-03T06:08:41.347Z,21.80
2022-08-03T06:11:09.864Z,21.81
2022-08-03T06:13:39.721Z,21.91
2022-08-03T06:16:07.875Z,21.98
2022-08-03T06:18:40.415Z,21.99
2022-08-03T06:21:15.701Z,22.04
2022-08-03T06:23:54.764Z,22.00
2022-08-03T06:26:28.768Z,21.96
2022-08-03T06:28:58.287Z,21.98
2022-08-03T06:31:33.372Z,22.29
2022-08-03T06:34:34.446Z,22.21
2022-08-03T06:36:58.630Z,22.18
2022-08-03T06:39:29.954Z,22.16
2022-08-03T06:41:58.191Z,22.22
2022-08-03T06:44:27.907Z,22.32
2022-08-03T06:46:58.085Z,22.37
2022-08-03T06:49:27.422Z,22.43
2022-08-03T06:52:37.097Z,22.54
2022-08-03T06:54:44.785Z,22.61
2022-08-03T06:57:13.111Z,22.69
2022-08-03T07:00:08.224Z,22.87
2022-08-03T07:02:30.846Z,22.87
2022-08-03T07:04:59.255Z,23.05
2022-08-03T07:07:27.202Z,23.18
2022-08-03T07:09:58.287Z,23.08
2022-08-03T07:12:28.648Z,23.25
2022-08-03T07:15:02.565Z,23.43
2022-08-03T07:17:33.899Z,23.60
2022-08-03T07:20:03.682Z,23.60
2022-08-03T07:22:31.792Z,23.66
2022-08-03T07:25:00.034Z,23.53
2022-08-03T07:27:29.869Z,23.56
2022-08-03T07:30:00.414Z,23.54
2022-08-03T07:32:31.574Z,23.62
2022-08-03T07:35:01.165Z,23.69
2022-08-03T07:37:30.801Z,24.03
2022-08-03T07:39:59.518Z,24.07
2022-08-03T07:42:27.911Z,24.12
2022-08-03T07:44:56.102Z,24.38
2022-08-03T07:47:35.492Z,24.50
2022-08-03T07:50:08.550Z,24.65
2022-08-03T07:52:49.378Z,24.69
2022-08-03T07:55:17.952Z,24.77
2022-08-03T07:57:45.960Z,24.88
2022-08-03T08:00:17.400Z,24.94
2022-08-03T08:02:47.285Z,24.93
2022-08-03T08:05:15.395Z,24.99
2022-08-03T08:07:44.016Z,25.08
2022-08-03T08:10:19.417Z,25.24
2022-08-03T08:12:47.717Z,25.34
2022-08-03T08:15:15.821Z,25.45
2022-08-03T08:17:47.351Z,25.80
2022-08-03T08:20:27.084Z,25.83
2022-08-03T08:22:58.181Z,25.76
2022-08-03T08:25:29.413Z,25.87
2022-08-03T08:28:29.063Z,26.02
2022-08-03T08:30:46.297Z,26.30
2022-08-03T08:33:22.548Z,26.29
2022-08-03T08:35:52.993Z,26.29
2022-08-03T08:38:21.039Z,26.11
2022-08-03T08:40:50.536Z,26.25
2022-08-03T08:43:18.838Z,26.33
2022-08-03T08:45:48.438Z,26.26
2022-08-03T08:48:23.437Z,26.43
2022-08-03T08:50:54.528Z,26.59
2022-08-03T08:53:27.227Z,26.79
2022-08-03T08:56:00.533Z,27.15
2022-08-03T08:58:31.498Z,27.21
2022-08-03T09:01:00.294Z,27.17
2022-08-03T09:03:30.940Z,27.23
2022-08-03T09:06:00.867Z,27.59
2022-08-03T09:08:30.184Z,27.98
2022-08-03T09:10:58.247Z,28.33
2022-08-03T09:13:26.770Z,28.30
2022-08-03T09:16:16.618Z,28.19
2022-08-03T09:18:48.473Z,28.59
2022-08-03T09:21:32.059Z,28.86
2022-08-03T09:24:04.157Z,29.04
2022-08-03T09:26:34.505Z,29.24
2022-08-03T09:29:08.114Z,29.64
2022-08-03T09:31:43.108Z,29.50
2022-08-03T09:34:15.434Z,29.55
2022-08-03T09:36:45.755Z,29.74
2022-08-03T09:39:16.704Z,29.90
2022-08-03T09:41:46.953Z,30.20
2022-08-03T09:44:25.448Z,30.34
2022-08-03T09:46:56.716Z,30.58
2022-08-03T09:49:26.826Z,30.21
2022-08-03T09:52:32.330Z,30.69
2022-08-03T09:54:44.334Z,31.38
2022-08-03T09:57:23.348Z,31.92
2022-08-03T09:59:54.964Z,32.33
2022-08-03T10:02:41.012Z,32.77
2022-08-03T10:05:19.497Z,33.50
2022-08-03T10:07:49.643Z,35.18
2022-08-03T10:10:30.209Z,36.34
2022-08-03T10:13:01.145Z,37.33
2022-08-03T10:16:21.661Z,38.66
2022-08-03T10:18:18.042Z,40.43
2022-08-03T10:20:53.446Z,41.06
2022-08-03T10:23:22.554Z,40.81
2022-08-03T10:25:59.241Z,40.11
2022-08-03T10:28:34.885Z,40.13
2022-08-03T10:31:07.232Z,40.16
2022-08-03T10:33:51.490Z,40.24
2022-08-03T10:36:25.330Z,39.08
2022-08-03T10:38:54.125Z,38.90
2022-08-03T10:41:24.513Z,38.16
2022-08-03T10:43:57.889Z,37.42
2022-08-03T10:46:28.105Z,36.93
2022-08-03T10:48:57.585Z,36.59
2022-08-03T10:51:32.250Z,36.81
2022-08-03T10:54:01.839Z,36.38
2022-08-03T10:57:07.197Z,37.52
2022-08-03T11:00:03.474Z,36.60
2022-08-03T11:03:17.676Z,37.80
2022-08-03T11:05:46.869Z,37.57
2022-08-03T11:08:40.004Z,38.11
2022-08-03T11:11:28.367Z,38.48
2022-08-03T11:14:02.808Z,40.17
2022-08-03T11:16:32.436Z,41.32
2022-08-03T11:19:02.772Z,41.42
2022-08-03T11:21:54.399Z,41.75
2022-08-03T11:25:01.124Z,41.13
2022-08-03T11:27:33.850Z,41.70
2022-08-03T11:30:10.381Z,40.63
2022-08-03T11:33:00.034Z,40.54
2022-08-03T11:35:30.289Z,41.16
2022-08-03T11:38:08.897Z,41.72
2022-08-03T11:40:42.103Z,41.56
2022-08-03T11:43:12.205Z,41.72
2022-08-03T11:45:40.422Z,41.16
2022-08-03T11:48:18.339Z,42.14
2022-08-03T11:50:46.479Z,42.45
2022-08-03T11:53:19.411Z,41.61
2022-08-03T11:55:49.922Z,40.33
2022-08-03T11:59:16.587Z,40.45
2022-08-03T12:01:08.701Z,40.67
2022-08-03T12:03:37.317Z,40.87
2022-08-03T12:06:10.702Z,41.45
2022-08-03T12:08:38.668Z,40.98
2022-08-03T12:11:10.109Z,40.51
2022-08-03T12:14:43.925Z,41.16
2022-08-03T12:16:29.556Z,42.02
2022-08-03T12:18:59.698Z,41.29
2022-08-03T12:21:29.357Z,40.82
2022-08-03T12:24:01.800Z,40.43
2022-08-03T12:26:43.408Z,41.00
2022-08-03T12:29:18.241Z,40.74
2022-08-03T12:31:46.325Z,40.47
2022-08-03T12:34:14.749Z,40.17
2022-08-03T12:36:52.909Z,40.71
2022-08-03T12:39:25.274Z,40.40
2022-08-03T12:41:56.683Z,39.88
2022-08-03T12:44:31.881Z,39.87
2022-08-03T12:47:01.279Z,39.91
2022-08-03T12:49:30.497Z,39.64
2022-08-03T12:52:04.087Z,39.61
2022-08-03T12:54:36.133Z,40.11
2022-08-03T12:57:07.233Z,39.79
2022-08-03T12:59:40.713Z,39.84
2022-08-03T13:02:17.672Z,39.46
2022-08-03T13:04:47.552Z,39.60
2022-08-03T13:07:16.583Z,39.39
2022-08-03T13:09:47.667Z,39.57
2022-08-03T13:12:20.847Z,39.22
2022-08-03T13:14:51.852Z,38.70
2022-08-03T13:17:20.607Z,38.60
2022-08-03T13:19:50.291Z,38.56
2022-08-03T13:22:20.230Z,38.31
2022-08-03T13:24:49.985Z,38.22
2022-08-03T13:28:01.629Z,37.90
2022-08-03T13:30:09.625Z,38.08
2022-08-03T13:32:37.717Z,37.43
2022-08-03T13:35:06.863Z,37.66
2022-08-03T13:37:35.864Z,37.40
2022-08-03T13:40:05.841Z,37.70
2022-08-03T13:42:36.845Z,37.55
2022-08-03T13:45:06.786Z,37.08
2022-08-03T13:47:35.083Z,37.06
2022-08-03T13:50:03.450Z,36.71
2022-08-03T13:52:32.813Z,36.58
2022-08-03T13:55:01.589Z,37.06
2022-08-03T13:58:06.347Z,36.78
2022-08-03T14:00:26.477Z,36.13
2022-08-03T14:03:09.126Z,36.43
2022-08-03T14:05:41.918Z,36.16
2022-08-03T14:08:10.898Z,36.25
2022-08-03T14:10:40.532Z,36.33
2022-08-03T14:13:09.143Z,36.27
2022-08-03T14:15:38.945Z,36.39
2022-08-03T14:18:15.923Z,35.60
2022-08-03T14:20:56.891Z,35.75
2022-08-03T14:23:27.402Z,36.06
2022-08-03T14:25:55.430Z,35.82
2022-08-03T14:28:25.381Z,35.81
2022-08-03T14:30:57.041Z,35.55
2022-08-03T14:33:25.740Z,35.60
2022-08-03T14:35:54.255Z,35.66
2022-08-03T14:38:23.026Z,35.53
2022-08-03T14:40:51.952Z,35.64
2022-08-03T14:43:21.160Z,35.74
2022-08-03T14:45:52.357Z,35.71
2022-08-03T14:50:31.789Z,35.96
2022-08-03T14:51:12.299Z,35.43
2022-08-03T14:53:41.642Z,35.48
2022-08-03T14:56:10.677Z,35.14
2022-08-03T14:58:39.303Z,34.89
2022-08-03T15:02:03.055Z,35.04
2022-08-03T15:03:58.579Z,35.17
2022-08-03T15:06:26.915Z,35.25
2022-08-03T15:09:21.353Z,35.61
2022-08-03T15:11:43.778Z,35.36
2022-08-03T15:14:13.426Z,35.33
2022-08-03T15:16:42.721Z,35.07
2022-08-03T15:20:00.819Z,34.97
2022-08-03T15:22:00.990Z,34.90
2022-08-03T15:24:29.907Z,34.55
2022-08-03T15:26:57.810Z,34.61
2022-08-03T15:30:08.983Z,34.95
2022-08-03T15:32:14.931Z,35.01
2022-08-03T15:34:50.313Z,35.16
2022-08-03T15:37:19.910Z,35.25
2022-08-03T15:39:59.991Z,35.35
2022-08-03T15:42:31.010Z,35.15
2022-08-03T15:44:59.297Z,35.27
2022-08-03T15:47:27.705Z,35.51
2022-08-03T15:49:56.896Z,34.74
2022-08-03T15:52:25.382Z,34.70
2022-08-03T15:54:53.617Z,34.85
2022-08-03T15:57:22.148Z,35.07
2022-08-03T15:59:50.667Z,35.16
2022-08-03T16:02:18.680Z,34.66
2022-08-03T16:04:46.642Z,34.53
2022-08-03T16:07:16.280Z,34.37
2022-08-03T16:09:44.523Z,34.15
2022-08-03T16:12:16.416Z,34.05
2022-08-03T16:14:53.818Z,33.97
2022-08-03T16:17:23.549Z,33.91
2022-08-03T16:19:54.837Z,33.77
2022-08-03T16:22:28.305Z,33.81
2022-08-03T16:24:57.682Z,33.77
2022-08-03T16:27:56.773Z,33.73
2022-08-03T16:30:16.744Z,33.73
2022-08-03T16:32:45.822Z,33.74
2022-08-03T16:35:19.178Z,33.68
2022-08-03T16:37:56.891Z,33.49
2022-08-03T16:40:25.991Z,33.55
2022-08-03T16:42:54.534Z,33.44
2022-08-03T16:45:22.933Z,33.38
2022-08-03T16:48:01.521Z,33.46
2022-08-03T16:50:34.440Z,33.37
2022-08-03T16:53:09.028Z,33.17
2022-08-03T16:55:48.461Z,33.16
2022-08-03T16:58:34.267Z,32.89
2022-08-03T17:01:22.444Z,32.90
2022-08-03T17:04:02.700Z,33.17
2022-08-03T17:06:35.165Z,33.42
2022-08-03T17:09:08.344Z,33.38
2022-08-03T17:11:43.095Z,33.38
2022-08-03T17:14:14.663Z,33.29
2022-08-03T17:16:52.538Z,33.23
2022-08-03T17:19:24.199Z,32.90
2022-08-03T17:21:58.732Z,32.65
2022-08-03T17:24:35.002Z,32.38
2022-08-03T17:27:08.905Z,32.29
2022-08-03T17:29:45.100Z,32.09
2022-08-03T17:32:18.398Z,31.94
2022-08-03T17:34:50.711Z,31.92
2022-08-03T17:37:50.638Z,31.85
2022-08-03T17:40:17.361Z,31.95
2022-08-03T17:42:50.825Z,31.86
2022-08-03T17:45:20.800Z,31.67
2022-08-03T17:47:57.719Z,31.65
2022-08-03T17:50:35.368Z,31.56
2022-08-03T17:53:15.300Z,31.82
2022-08-03T17:56:04.927Z,31.62
2022-08-03T17:58:53.524Z,31.40
2022-08-03T18:02:00.127Z,31.44
2022-08-03T18:04:41.295Z,31.21
2022-08-03T18:07:12.542Z,31.02
2022-08-03T18:10:04.046Z,30.91
2022-08-03T18:12:46.008Z,30.75
2022-08-03T18:15:27.768Z,30.67
2022-08-03T18:18:03.089Z,30.54
2022-08-03T18:20:42.035Z,30.54
2022-08-03T18:23:24.692Z,30.46
2022-08-03T18:25:59.214Z,30.36
2022-08-03T18:28:30.234Z,30.26
2022-08-03T18:31:04.161Z,30.18
2022-08-03T18:34:17.260Z,30.10
2022-08-03T18:36:29.923Z,29.95
2022-08-03T18:39:00.142Z,29.86
2022-08-03T18:41:32.619Z,29.77
2022-08-03T18:44:08.349Z,29.65
2022-08-03T18:46:48.053Z,29.55
2022-08-03T18:49:29.854Z,29.48
2022-08-03T18:52:12.419Z,29.38
2022-08-03T18:55:02.572Z,29.33
2022-08-03T18:57:46.382Z,29.28
2022-08-03T19:03:12.457Z,29.13
2022-08-03T19:06:02.448Z,29.05
2022-08-03T19:08:48.668Z,29.03
2022-08-03T19:11:28.238Z,28.98
2022-08-03T19:14:00.308Z,28.95
2022-08-03T19:16:39.376Z,28.85
2022-08-03T19:19:14.408Z,28.77
2022-08-03T19:21:44.650Z,28.72
2022-08-03T19:25:12.224Z,28.68
2022-08-03T19:27:40.630Z,28.64
2022-08-03T19:30:32.324Z,28.62
2022-08-03T19:33:01.640Z,28.52
2022-08-03T19:35:51.655Z,28.51
2022-08-03T19:38:28.567Z,28.45
2022-08-03T19:41:05.722Z,28.40
2022-08-03T19:43:53.248Z,28.33
2022-08-03T19:46:30.542Z,28.32
2022-08-03T19:49:04.128Z,28.32
2022-08-03T19:51:58.487Z,28.28
2022-08-03T19:54:39.594Z,28.26
2022-08-03T19:57:25.498Z,28.22
2022-08-03T19:59:57.039Z,28.20
2022-08-03T20:02:28.045Z,28.19
2022-08-03T20:04:59.906Z,28.10
2022-08-03T20:07:30.928Z,28.10
2022-08-03T20:10:01.374Z,28.07
2022-08-03T20:12:39.116Z,28.10
2022-08-03T20:15:10.512Z,28.05
2022-08-03T20:17:57.160Z,28.03
2022-08-03T20:20:30.208Z,27.97
2022-08-03T20:22:59.895Z,27.92
2022-08-03T20:25:37.913Z,27.92
2022-08-03T20:28:15.235Z,27.84
2022-08-03T20:30:47.567Z,27.82
2022-08-03T20:33:18.331Z,27.81
2022-08-03T20:35:50.045Z,28.20
2022-08-03T20:38:19.471Z,27.96
2022-08-03T20:40:49.039Z,27.79
2022-08-03T20:43:19.937Z,27.74
2022-08-03T20:46:00.266Z,27.70
2022-08-03T20:48:37.263Z,27.64
2022-08-03T20:51:15.662Z,27.66
2022-08-03T20:53:59.744Z,27.60
2022-08-03T20:56:33.738Z,27.57
2022-08-03T20:59:05.673Z,27.54
2022-08-03T21:01:35.996Z,27.50
2022-08-03T21:04:07.013Z,27.49
2022-08-03T21:06:42.874Z,27.45
2022-08-03T21:09:19.624Z,27.42
2022-08-03T21:11:51.725Z,27.40
2022-08-03T21:13:00.964Z,29.22
2022-08-03T21:14:26.871Z,27.34
2022-08-03T21:16:56.776Z,27.32
2022-08-03T21:19:27.207Z,27.28
2022-08-03T21:21:56.327Z,27.25
2022-08-03T21:24:26.779Z,27.24
2022-08-03T21:26:55.721Z,27.23
2022-08-03T21:29:25.625Z,27.23
2022-08-03T21:31:54.273Z,27.18
2022-08-03T21:34:25.168Z,27.12
2022-08-03T21:36:53.390Z,27.12
2022-08-03T21:39:21.442Z,27.12
2022-08-03T21:41:49.463Z,27.09
2022-08-03T21:44:29.090Z,27.04
2022-08-03T21:47:00.900Z,27.05
2022-08-03T21:50:05.806Z,26.98
2022-08-03T21:52:22.538Z,27.01
2022-08-03T21:54:52.290Z,26.95
2022-08-03T21:57:23.042Z,26.94
2022-08-03T21:59:55.270Z,26.91
2022-08-03T22:02:30.058Z,26.84
2022-08-03T22:05:00.135Z,26.86
2022-08-03T22:07:31.186Z,26.87
2022-08-03T22:10:01.473Z,26.85
2022-08-03T22:12:31.587Z,26.85
2022-08-03T22:15:02.237Z,26.80
2022-08-03T22:17:55.709Z,26.78
2022-08-03T22:20:22.315Z,26.73
2022-08-03T22:22:56.560Z,26.70
2022-08-03T22:25:29.384Z,26.67
2022-08-03T22:27:59.425Z,26.67
2022-08-03T22:30:28.165Z,26.52
2022-08-03T22:32:58.972Z,26.05
2022-08-03T22:35:28.280Z,25.89
2022-08-03T22:37:58.609Z,25.86
2022-08-03T22:40:28.006Z,25.75
2022-08-03T22:42:56.262Z,25.58
2022-08-03T22:46:07.498Z,25.49
2022-08-03T22:48:17.396Z,25.38
2022-08-03T22:50:45.859Z,25.35
2022-08-03T22:53:17.957Z,25.38
2022-08-03T22:55:46.714Z,25.44
2022-08-03T22:58:16.562Z,25.37
2022-08-03T23:00:54.079Z,25.57
2022-08-03T23:04:01.186Z,25.66
2022-08-03T23:06:17.549Z,25.48
2022-08-03T23:08:47.545Z,25.41
2022-08-03T23:11:18.563Z,25.62
2022-08-03T23:13:48.087Z,25.66
2022-08-03T23:16:28.954Z,25.69
2022-08-03T23:18:59.527Z,25.60
2022-08-03T23:21:53.416Z,25.68
2022-08-03T23:24:27.499Z,25.71
2022-08-03T23:26:58.480Z,25.67
2022-08-03T23:29:29.947Z,25.71
2022-08-03T23:31:59.501Z,25.68
2022-08-03T23:34:46.897Z,25.72
2022-08-03T23:37:15.908Z,25.61
2022-08-03T23:39:46.521Z,25.53
2022-08-03T23:42:16.222Z,25.44
2022-08-03T23:44:45.907Z,25.37
2022-08-03T23:47:14.317Z,25.29
2022-08-03T23:49:43.972Z,25.24
2022-08-03T23:52:21.824Z,25.19
2022-08-03T23:55:04.366Z,25.21
2022-08-03T23:57:43.705Z,25.19
